sensor_id;sensor_type;location;lat;lon;timestamp;P1;durP1;ratioP1;P2;durP2;ratioP2
7169;SDS011;3626;42.656;23.312;2022-10-30T00:00:05;16.33;;;8.63;;
7169;SDS011;3626;42.656;23.312;2022-10-30T00:00:12;16.60;;;8.87;;
7169;SDS011;3626;42.656;23.312;2022-10-30T00:00:18;18.08;;;9.16;;
7169;SDS011;3626;42.656;23.312;2022-10-30T00:00:24;19.05;;;9.10;;
7169;SDS011;3626;42.656;23.312;2022-10-30T00:00:30;19.35;;;9.10;;
7169;SDS011;3626;42.656;23.312;2022-10-30T00:00:36;18.75;;;9.20;;
7169;SDS011;3626;42.656;23.312;2022-10-30T00:00:42;18.80;;;9.20;;
7169;SDS011;3626;42.656;23.312;2022-10-30T00:00:49;18.84;;;9.24;;
7169;SDS011;3626;42.656;23.312;2022-10-30T00:00:54;18.75;;;9.35;;
7169;SDS011;3626;42.656;23.312;2022-10-30T00:01:00;17.00;;;9.27;;
7169;SDS011;3626;42.656;23.312;2022-10-30T00:01:06;16.52;;;8.90;;
7169;SDS011;3626;42.656;23.312;2022-10-30T00:01:12;16.47;;;8.80;;
7169;SDS011;3626;42.656;23.312;2022-10-30T00:01:17;15.65;;;8.57;;
7169;SDS011;3626;42.656;23.312;2022-10-30T00:01:23;14.90;;;8.48;;
7169;SDS011;3626;42.656;23.312;2022-10-30T00:01:29;13.88;;;8.27;;
7169;SDS011;3626;42.656;23.312;2022-10-30T00:01:35;14.00;;;8.30;;
7169;SDS011;3626;42.656;23.312;2022-10-30T00:01:40;13.75;;;8.30;;
7169;SDS011;3626;42.656;23.312;2022-10-30T00:01:47;13.14;;;8.08;;
7169;SDS011;3626;42.656;23.312;2022-10-30T00:01:53;13.20;;;7.90;;
7169;SDS011;3626;42.656;23.312;2022-10-30T00:01:59;13.23;;;7.90;;
7169;SDS011;3626;42.656;23.312;2022-10-30T00:02:04;12.87;;;7.90;;
7169;SDS011;3626;42.656;23.312;2022-10-30T00:02:10;12.60;;;7.95;;
7169;SDS011;3626;42.656;23.312;2022-10-30T00:02:16;12.10;;;7.93;;
7169;SDS011;3626;42.656;23.312;2022-10-30T00:02:23;11.80;;;8.04;;
7169;SDS011;3626;42.656;23.312;2022-10-30T00:02:28;12.23;;;8.17;;
7169;SDS011;3626;42.656;23.312;2022-10-30T00:02:34;12.52;;;8.10;;
7169;SDS011;3626;42.656;23.312;2022-10-30T00:02:40;12.75;;;8.20;;
7169;SDS011;3626;42.656;23.312;2022-10-30T00:02:46;13.03;;;8.37;;
7169;SDS011;3626;42.656;23.312;2022-10-30T00:02:52;13.15;;;8.60;;
7169;SDS011;3626;42.656;23.312;2022-10-30T00:02:58;13.73;;;8.77;;
7169;SDS011;3626;42.656;23.312;2022-10-30T00:03:04;13.88;;;8.85;;
7169;SDS011;3626;42.656;23.312;2022-10-30T00:03:10;14.50;;;9.15;;
7169;SDS011;3626;42.656;23.312;2022-10-30T00:03:17;15.44;;;9.40;;
7169;SDS011;3626;42.656;23.312;2022-10-30T00:03:23;15.68;;;9.50;;
7169;SDS011;3626;42.656;23.312;2022-10-30T00:03:28;15.37;;;9.50;;
7169;SDS011;3626;42.656;23.312;2022-10-30T00:03:34;15.30;;;9.50;;
7169;SDS011;3626;42.656;23.312;2022-10-30T00:03:40;16.35;;;9.50;;
7169;SDS011;3626;42.656;23.312;2022-10-30T00:03:46;16.63;;;9.40;;
7169;SDS011;3626;42.656;23.312;2022-10-30T00:03:52;17.55;;;9.32;;
7169;SDS011;3626;42.656;23.312;2022-10-30T00:03:58;17.20;;;9.40;;
7169;SDS011;3626;42.656;23.312;2022-10-30T00:04:04;17.17;;;9.38;;
7169;SDS011;3626;42.656;23.312;2022-10-30T00:04:09;16.77;;;9.17;;
7169;SDS011;3626;42.656;23.312;2022-10-30T00:04:15;15.80;;;8.88;;
7169;SDS011;3626;42.656;23.312;2022-10-30T00:04:21;15.23;;;8.63;;
7169;SDS011;3626;42.656;23.312;2022-10-30T00:04:27;14.98;;;8.50;;
7169;SDS011;3626;42.656;23.312;2022-10-30T00:04:33;15.27;;;8.50;;
7169;SDS011;3626;42.656;23.312;2022-10-30T00:04:38;14.90;;;8.43;;
7169;SDS011;3626;42.656;23.312;2022-10-30T00:04:44;14.80;;;8.48;;
7169;SDS011;3626;42.656;23.312;2022-10-30T00:04:50;13.82;;;8.48;;
7169;SDS011;3626;42.656;23.312;2022-10-30T00:04:56;14.07;;;8.25;;
7169;SDS011;3626;42.656;23.312;2022-10-30T00:05:01;13.83;;;8.10;;
7169;SDS011;3626;42.656;23.312;2022-10-30T00:05:08;14.18;;;8.10;;
7169;SDS011;3626;42.656;23.312;2022-10-30T00:05:14;14.60;;;8.27;;
7169;SDS011;3626;42.656;23.312;2022-10-30T00:05:20;14.38;;;8.25;;
7169;SDS011;3626;42.656;23.312;2022-10-30T00:05:26;14.88;;;8.40;;
7169;SDS011;3626;42.656;23.312;2022-10-30T00:05:32;14.68;;;8.50;;
7169;SDS011;3626;42.656;23.312;2022-10-30T00:05:40;13.80;;;8.40;;
7169;SDS011;3626;42.656;23.312;2022-10-30T00:05:47;14.20;;;8.30;;
7169;SDS011;3626;42.656;23.312;2022-10-30T00:05:54;15.06;;;8.54;;
7169;SDS011;3626;42.656;23.312;2022-10-30T00:06:02;15.80;;;8.85;;
7169;SDS011;3626;42.656;23.312;2022-10-30T00:06:08;15.50;;;8.80;;
7169;SDS011;3626;42.656;23.312;2022-10-30T00:06:14;15.60;;;8.80;;
7169;SDS011;3626;42.656;23.312;2022-10-30T00:06:20;16.80;;;8.88;;
7169;SDS011;3626;42.656;23.312;2022-10-30T00:06:25;17.48;;;8.75;;
7169;SDS011;3626;42.656;23.312;2022-10-30T00:06:31;17.47;;;8.63;;
7169;SDS011;3626;42.656;23.312;2022-10-30T00:06:37;17.65;;;8.73;;
7169;SDS011;3626;42.656;23.312;2022-10-30T00:06:43;17.45;;;8.90;;
7169;SDS011;3626;42.656;23.312;2022-10-30T00:06:49;17.53;;;9.07;;
7169;SDS011;3626;42.656;23.312;2022-10-30T00:06:55;16.03;;;8.80;;
7169;SDS011;3626;42.656;23.312;2022-10-30T00:07:01;16.10;;;8.68;;
7169;SDS011;3626;42.656;23.312;2022-10-30T00:07:07;16.23;;;8.68;;
7169;SDS011;3626;42.656;23.312;2022-10-30T00:07:12;15.80;;;8.60;;
7169;SDS011;3626;42.656;23.312;2022-10-30T00:07:18;15.53;;;8.60;;
7169;SDS011;3626;42.656;23.312;2022-10-30T00:07:24;14.82;;;8.85;;
7169;SDS011;3626;42.656;23.312;2022-10-30T00:07:29;15.38;;;9.15;;
7169;SDS011;3626;42.656;23.312;2022-10-30T00:07:35;15.17;;;9.17;;
7169;SDS011;3626;42.656;23.312;2022-10-30T00:07:41;14.88;;;9.18;;
7169;SDS011;3626;42.656;23.312;2022-10-30T00:07:47;14.10;;;8.88;;
7169;SDS011;3626;42.656;23.312;2022-10-30T00:07:53;13.63;;;8.88;;
7169;SDS011;3626;42.656;23.312;2022-10-30T00:07:59;13.43;;;8.73;;
7169;SDS011;3626;42.656;23.312;2022-10-30T00:08:05;13.98;;;8.70;;
7169;SDS011;3626;42.656;23.312;2022-10-30T00:08:11;14.52;;;8.70;;
7169;SDS011;3626;42.656;23.312;2022-10-30T00:08:20;14.58;;;8.58;;
7169;SDS011;3626;42.656;23.312;2022-10-30T00:08:26;15.12;;;8.62;;
7169;SDS011;3626;42.656;23.312;2022-10-30T00:08:32;15.15;;;8.38;;
7169;SDS011;3626;42.656;23.312;2022-10-30T00:08:38;15.03;;;8.23;;
7169;SDS011;3626;42.656;23.312;2022-10-30T00:08:44;15.70;;;8.20;;
7169;SDS011;3626;42.656;23.312;2022-10-30T00:08:49;16.17;;;8.10;;
7169;SDS011;3626;42.656;23.312;2022-10-30T00:08:55;16.30;;;8.15;;
7169;SDS011;3626;42.656;23.312;2022-10-30T00:09:01;16.07;;;8.30;;
7169;SDS011;3626;42.656;23.312;2022-10-30T00:09:07;15.70;;;8.25;;
7169;SDS011;3626;42.656;23.312;2022-10-30T00:09:13;14.88;;;8.00;;
7169;SDS011;3626;42.656;23.312;2022-10-30T00:09:18;14.20;;;7.95;;
7169;SDS011;3626;42.656;23.312;2022-10-30T00:09:24;13.27;;;7.70;;
7169;SDS011;3626;42.656;23.312;2022-10-30T00:09:30;12.77;;;7.67;;
7169;SDS011;3626;42.656;23.312;2022-10-30T00:09:36;13.05;;;7.90;;
7169;SDS011;3626;42.656;23.312;2022-10-30T00:09:41;13.15;;;7.90;;
7169;SDS011;3626;42.656;23.312;2022-10-30T00:09:47;13.40;;;8.05;;
7169;SDS011;3626;42.656;23.312;2022-10-30T00:09:53;14.50;;;8.17;;
7169;SDS011;3626;42.656;23.312;2022-10-30T00:09:59;17.00;;;8.30;;
7169;SDS011;3626;42.656;23.312;2022-10-30T00:10:05;18.02;;;8.30;;
7169;SDS011;3626;42.656;23.312;2022-10-30T00:10:13;18.40;;;8.45;;
7169;SDS011;3626;42.656;23.312;2022-10-30T00:10:19;19.30;;;8.67;;
7169;SDS011;3626;42.656;23.312;2022-10-30T00:10:25;19.52;;;8.48;;
7169;SDS011;3626;42.656;23.312;2022-10-30T00:10:30;19.20;;;8.38;;
7169;SDS011;3626;42.656;23.312;2022-10-30T00:10:36;18.98;;;8.32;;
7169;SDS011;3626;42.656;23.312;2022-10-30T00:10:42;19.17;;;8.37;;
7169;SDS011;3626;42.656;23.312;2022-10-30T00:10:49;17.92;;;8.24;;
7169;SDS011;3626;42.656;23.312;2022-10-30T00:10:54;17.63;;;8.20;;
7169;SDS011;3626;42.656;23.312;2022-10-30T00:11:04;14.63;;;8.10;;
7169;SDS011;3626;42.656;23.312;2022-10-30T00:11:11;13.95;;;8.06;;
7169;SDS011;3626;42.656;23.312;2022-10-30T00:11:17;14.20;;;8.02;;
7169;SDS011;3626;42.656;23.312;2022-10-30T00:11:24;14.40;;;8.18;;
7169;SDS011;3626;42.656;23.312;2022-10-30T00:11:30;14.48;;;8.13;;
7169;SDS011;3626;42.656;23.312;2022-10-30T00:11:35;14.50;;;8.10;;
7169;SDS011;3626;42.656;23.312;2022-10-30T00:11:41;14.00;;;7.97;;
7169;SDS011;3626;42.656;23.312;2022-10-30T00:11:47;14.23;;;8.00;;
7169;SDS011;3626;42.656;23.312;2022-10-30T00:11:53;13.88;;;8.05;;
7169;SDS011;3626;42.656;23.312;2022-10-30T00:12:00;14.07;;;8.07;;
7169;SDS011;3626;42.656;23.312;2022-10-30T00:12:06;14.24;;;8.20;;
7169;SDS011;3626;42.656;23.312;2022-10-30T00:12:11;14.40;;;8.25;;
7169;SDS011;3626;42.656;23.312;2022-10-30T00:12:17;14.25;;;8.30;;
7169;SDS011;3626;42.656;23.312;2022-10-30T00:12:23;14.13;;;8.37;;
7169;SDS011;3626;42.656;23.312;2022-10-30T00:12:29;14.20;;;8.32;;
7169;SDS011;3626;42.656;23.312;2022-10-30T00:12:35;14.00;;;8.18;;
7169;SDS011;3626;42.656;23.312;2022-10-30T00:12:40;14.25;;;8.20;;
7169;SDS011;3626;42.656;23.312;2022-10-30T00:12:46;14.27;;;8.10;;
7169;SDS011;3626;42.656;23.312;2022-10-30T00:12:52;15.07;;;8.02;;
7169;SDS011;3626;42.656;23.312;2022-10-30T00:12:58;14.90;;;7.97;;
7169;SDS011;3626;42.656;23.312;2022-10-30T00:13:05;15.20;;;7.90;;
7169;SDS011;3626;42.656;23.312;2022-10-30T00:13:11;15.33;;;7.87;;
7169;SDS011;3626;42.656;23.312;2022-10-30T00:13:17;15.70;;;7.87;;
7169;SDS011;3626;42.656;23.312;2022-10-30T00:13:24;15.37;;;7.80;;
7169;SDS011;3626;42.656;23.312;2022-10-30T00:13:30;15.67;;;8.03;;
7169;SDS011;3626;42.656;23.312;2022-10-30T00:13:35;18.10;;;8.25;;
7169;SDS011;3626;42.656;23.312;2022-10-30T00:13:42;17.97;;;8.20;;
7169;SDS011;3626;42.656;23.312;2022-10-30T00:13:48;18.06;;;8.30;;
7169;SDS011;3626;42.656;23.312;2022-10-30T00:13:54;17.30;;;8.48;;
7169;SDS011;3626;42.656;23.312;2022-10-30T00:14:00;17.42;;;8.60;;
7169;SDS011;3626;42.656;23.312;2022-10-30T00:14:07;17.17;;;8.47;;
7169;SDS011;3626;42.656;23.312;2022-10-30T00:14:13;16.80;;;8.50;;
7169;SDS011;3626;42.656;23.312;2022-10-30T00:14:18;15.52;;;8.32;;
7169;SDS011;3626;42.656;23.312;2022-10-30T00:14:24;15.65;;;8.38;;
7169;SDS011;3626;42.656;23.312;2022-10-30T00:14:30;15.60;;;8.13;;
7169;SDS011;3626;42.656;23.312;2022-10-30T00:14:36;14.00;;;8.13;;
7169;SDS011;3626;42.656;23.312;2022-10-30T00:14:42;14.30;;;8.30;;
7169;SDS011;3626;42.656;23.312;2022-10-30T00:14:47;14.20;;;8.32;;
7169;SDS011;3626;42.656;23.312;2022-10-30T00:14:53;15.40;;;8.30;;
7169;SDS011;3626;42.656;23.312;2022-10-30T00:14:59;15.32;;;8.13;;
7169;SDS011;3626;42.656;23.312;2022-10-30T00:15:05;15.37;;;8.20;;
7169;SDS011;3626;42.656;23.312;2022-10-30T00:15:11;15.46;;;8.18;;
7169;SDS011;3626;42.656;23.312;2022-10-30T00:15:18;15.45;;;8.15;;
7169;SDS011;3626;42.656;23.312;2022-10-30T00:15:23;14.98;;;8.00;;
7169;SDS011;3626;42.656;23.312;2022-10-30T00:15:29;14.57;;;8.13;;
7169;SDS011;3626;42.656;23.312;2022-10-30T00:15:35;14.32;;;8.10;;
7169;SDS011;3626;42.656;23.312;2022-10-30T00:15:45;13.95;;;7.85;;
7169;SDS011;3626;42.656;23.312;2022-10-30T00:15:52;12.93;;;7.83;;
7169;SDS011;3626;42.656;23.312;2022-10-30T00:15:58;12.80;;;7.82;;
7169;SDS011;3626;42.656;23.312;2022-10-30T00:16:07;12.93;;;7.97;;
7169;SDS011;3626;42.656;23.312;2022-10-30T00:16:13;13.20;;;8.10;;
7169;SDS011;3626;42.656;23.312;2022-10-30T00:16:19;13.52;;;8.02;;
7169;SDS011;3626;42.656;23.312;2022-10-30T00:16:24;13.87;;;8.10;;
7169;SDS011;3626;42.656;23.312;2022-10-30T00:16:30;13.80;;;8.05;;
7169;SDS011;3626;42.656;23.312;2022-10-30T00:16:36;13.77;;;8.07;;
7169;SDS011;3626;42.656;23.312;2022-10-30T00:16:42;13.55;;;8.18;;
7169;SDS011;3626;42.656;23.312;2022-10-30T00:16:48;13.33;;;8.13;;
7169;SDS011;3626;42.656;23.312;2022-10-30T00:16:53;13.73;;;8.15;;
7169;SDS011;3626;42.656;23.312;2022-10-30T00:16:59;13.48;;;8.10;;
7169;SDS011;3626;42.656;23.312;2022-10-30T00:17:05;13.35;;;7.97;;
7169;SDS011;3626;42.656;23.312;2022-10-30T00:17:10;14.00;;;8.10;;
7169;SDS011;3626;42.656;23.312;2022-10-30T00:17:16;13.85;;;8.10;;
7169;SDS011;3626;42.656;23.312;2022-10-30T00:17:22;13.15;;;8.10;;
7169;SDS011;3626;42.656;23.312;2022-10-30T00:17:29;13.50;;;8.10;;
7169;SDS011;3626;42.656;23.312;2022-10-30T00:17:34;13.53;;;8.10;;
7169;SDS011;3626;42.656;23.312;2022-10-30T00:17:40;14.05;;;8.18;;
7169;SDS011;3626;42.656;23.312;2022-10-30T00:17:46;14.15;;;8.20;;
7169;SDS011;3626;42.656;23.312;2022-10-30T00:17:52;15.15;;;8.13;;
7169;SDS011;3626;42.656;23.312;2022-10-30T00:17:57;15.20;;;8.07;;
7169;SDS011;3626;42.656;23.312;2022-10-30T00:18:03;15.38;;;8.10;;
7169;SDS011;3626;42.656;23.312;2022-10-30T00:18:09;14.90;;;8.03;;
7169;SDS011;3626;42.656;23.312;2022-10-30T00:18:15;14.63;;;8.00;;
7169;SDS011;3626;42.656;23.312;2022-10-30T00:18:21;15.43;;;8.10;;
7169;SDS011;3626;42.656;23.312;2022-10-30T00:18:27;15.60;;;8.00;;
7169;SDS011;3626;42.656;23.312;2022-10-30T00:18:33;15.80;;;8.10;;
7169;SDS011;3626;42.656;23.312;2022-10-30T00:18:39;15.56;;;8.08;;
7169;SDS011;3626;42.656;23.312;2022-10-30T00:18:47;15.10;;;8.10;;
7169;SDS011;3626;42.656;23.312;2022-10-30T00:18:53;14.18;;;8.18;;
7169;SDS011;3626;42.656;23.312;2022-10-30T00:18:58;13.93;;;8.17;;
7169;SDS011;3626;42.656;23.312;2022-10-30T00:19:04;13.98;;;8.10;;
7169;SDS011;3626;42.656;23.312;2022-10-30T00:19:10;14.40;;;8.02;;
7169;SDS011;3626;42.656;23.312;2022-10-30T00:19:16;13.83;;;7.70;;
7169;SDS011;3626;42.656;23.312;2022-10-30T00:19:22;13.38;;;7.70;;
7169;SDS011;3626;42.656;23.312;2022-10-30T00:19:28;12.90;;;7.70;;
7169;SDS011;3626;42.656;23.312;2022-10-30T00:19:33;12.93;;;7.63;;
7169;SDS011;3626;42.656;23.312;2022-10-30T00:19:39;12.73;;;7.50;;
7169;SDS011;3626;42.656;23.312;2022-10-30T00:19:45;12.77;;;7.38;;
7169;SDS011;3626;42.656;23.312;2022-10-30T00:19:51;12.52;;;7.38;;
7169;SDS011;3626;42.656;23.312;2022-10-30T00:19:56;13.23;;;7.43;;
7169;SDS011;3626;42.656;23.312;2022-10-30T00:20:02;14.93;;;7.60;;
7169;SDS011;3626;42.656;23.312;2022-10-30T00:20:09;14.28;;;7.50;;
7169;SDS011;3626;42.656;23.312;2022-10-30T00:20:15;16.33;;;7.70;;
7169;SDS011;3626;42.656;23.312;2022-10-30T00:20:21;16.45;;;7.72;;
7169;SDS011;3626;42.656;23.312;2022-10-30T00:20:27;16.30;;;7.70;;
7169;SDS011;3626;42.656;23.312;2022-10-30T00:20:34;15.90;;;7.80;;
7169;SDS011;3626;42.656;23.312;2022-10-30T00:20:41;16.12;;;7.80;;
7169;SDS011;3626;42.656;23.312;2022-10-30T00:20:46;16.25;;;7.80;;
7169;SDS011;3626;42.656;23.312;2022-10-30T00:20:52;15.77;;;7.55;;
7169;SDS011;3626;42.656;23.312;2022-10-30T00:21:03;14.47;;;7.33;;
7169;SDS011;3626;42.656;23.312;2022-10-30T00:21:10;15.60;;;7.34;;
7169;SDS011;3626;42.656;23.312;2022-10-30T00:21:17;14.67;;;7.50;;
7169;SDS011;3626;42.656;23.312;2022-10-30T00:21:22;15.00;;;7.60;;
7169;SDS011;3626;42.656;23.312;2022-10-30T00:21:28;15.13;;;7.70;;
7169;SDS011;3626;42.656;23.312;2022-10-30T00:21:34;15.35;;;7.63;;
7169;SDS011;3626;42.656;23.312;2022-10-30T00:21:41;15.76;;;7.90;;
7169;SDS011;3626;42.656;23.312;2022-10-30T00:21:46;15.68;;;8.02;;
7169;SDS011;3626;42.656;23.312;2022-10-30T00:21:52;15.87;;;8.17;;
7169;SDS011;3626;42.656;23.312;2022-10-30T00:21:58;15.86;;;8.30;;
7169;SDS011;3626;42.656;23.312;2022-10-30T00:22:06;13.75;;;8.23;;
7169;SDS011;3626;42.656;23.312;2022-10-30T00:22:12;13.33;;;8.20;;
7169;SDS011;3626;42.656;23.312;2022-10-30T00:22:18;13.43;;;8.18;;
7169;SDS011;3626;42.656;23.312;2022-10-30T00:22:24;13.80;;;8.30;;
7169;SDS011;3626;42.656;23.312;2022-10-30T00:22:29;13.85;;;8.32;;
7169;SDS011;3626;42.656;23.312;2022-10-30T00:22:35;13.93;;;8.38;;
7169;SDS011;3626;42.656;23.312;2022-10-30T00:22:41;14.00;;;8.20;;
7169;SDS011;3626;42.656;23.312;2022-10-30T00:22:47;13.88;;;8.13;;
7169;SDS011;3626;42.656;23.312;2022-10-30T00:22:52;14.13;;;8.15;;
7169;SDS011;3626;42.656;23.312;2022-10-30T00:22:58;14.45;;;8.35;;
7169;SDS011;3626;42.656;23.312;2022-10-30T00:23:04;15.00;;;8.47;;
7169;SDS011;3626;42.656;23.312;2022-10-30T00:23:10;15.25;;;8.55;;
7169;SDS011;3626;42.656;23.312;2022-10-30T00:23:17;14.88;;;8.60;;
7169;SDS011;3626;42.656;23.312;2022-10-30T00:23:24;15.70;;;8.47;;
7169;SDS011;3626;42.656;23.312;2022-10-30T00:23:30;15.60;;;8.40;;
7169;SDS011;3626;42.656;23.312;2022-10-30T00:23:35;15.52;;;8.48;;
7169;SDS011;3626;42.656;23.312;2022-10-30T00:23:43;15.88;;;8.48;;
7169;SDS011;3626;42.656;23.312;2022-10-30T00:23:50;16.33;;;8.40;;
7169;SDS011;3626;42.656;23.312;2022-10-30T00:23:57;15.83;;;8.17;;
7169;SDS011;3626;42.656;23.312;2022-10-30T00:24:03;16.27;;;8.10;;
7169;SDS011;3626;42.656;23.312;2022-10-30T00:24:09;16.17;;;8.00;;
7169;SDS011;3626;42.656;23.312;2022-10-30T00:24:15;16.95;;;8.00;;
7169;SDS011;3626;42.656;23.312;2022-10-30T00:24:21;16.08;;;7.82;;
7169;SDS011;3626;42.656;23.312;2022-10-30T00:24:26;15.00;;;7.80;;
7169;SDS011;3626;42.656;23.312;2022-10-30T00:24:32;14.93;;;7.57;;
7169;SDS011;3626;42.656;23.312;2022-10-30T00:24:38;14.43;;;7.40;;
7169;SDS011;3626;42.656;23.312;2022-10-30T00:24:44;13.43;;;7.53;;
7169;SDS011;3626;42.656;23.312;2022-10-30T00:24:49;13.23;;;7.60;;
7169;SDS011;3626;42.656;23.312;2022-10-30T00:24:55;13.07;;;7.50;;
7169;SDS011;3626;42.656;23.312;2022-10-30T00:25:02;12.32;;;7.50;;
7169;SDS011;3626;42.656;23.312;2022-10-30T00:25:08;12.30;;;7.47;;
7169;SDS011;3626;42.656;23.312;2022-10-30T00:25:14;11.68;;;7.38;;
7169;SDS011;3626;42.656;23.312;2022-10-30T00:25:20;12.10;;;7.28;;
7169;SDS011;3626;42.656;23.312;2022-10-30T00:25:26;13.20;;;7.27;;
7169;SDS011;3626;42.656;23.312;2022-10-30T00:25:33;13.23;;;7.38;;
7169;SDS011;3626;42.656;23.312;2022-10-30T00:25:39;13.47;;;7.47;;
7169;SDS011;3626;42.656;23.312;2022-10-30T00:25:44;13.50;;;7.30;;
7169;SDS011;3626;42.656;23.312;2022-10-30T00:25:50;13.95;;;7.32;;
7169;SDS011;3626;42.656;23.312;2022-10-30T00:25:59;14.33;;;7.50;;
7169;SDS011;3626;42.656;23.312;2022-10-30T00:26:07;14.44;;;7.62;;
7169;SDS011;3626;42.656;23.312;2022-10-30T00:26:12;14.48;;;7.70;;
7169;SDS011;3626;42.656;23.312;2022-10-30T00:26:20;14.77;;;7.93;;
7169;SDS011;3626;42.656;23.312;2022-10-30T00:26:26;14.23;;;8.27;;
7169;SDS011;3626;42.656;23.312;2022-10-30T00:26:32;14.80;;;8.35;;
7169;SDS011;3626;42.656;23.312;2022-10-30T00:26:39;15.00;;;8.53;;
7169;SDS011;3626;42.656;23.312;2022-10-30T00:26:44;15.50;;;8.70;;
7169;SDS011;3626;42.656;23.312;2022-10-30T00:26:50;15.02;;;8.63;;
7169;SDS011;3626;42.656;23.312;2022-10-30T00:26:56;14.80;;;8.50;;
7169;SDS011;3626;42.656;23.312;2022-10-30T00:27:03;15.00;;;8.53;;
7169;SDS011;3626;42.656;23.312;2022-10-30T00:27:09;15.80;;;8.82;;
7169;SDS011;3626;42.656;23.312;2022-10-30T00:27:15;16.20;;;9.05;;
7169;SDS011;3626;42.656;23.312;2022-10-30T00:27:20;15.88;;;9.10;;
7169;SDS011;3626;42.656;23.312;2022-10-30T00:27:26;15.73;;;9.07;;
7169;SDS011;3626;42.656;23.312;2022-10-30T00:27:32;15.73;;;9.05;;
7169;SDS011;3626;42.656;23.312;2022-10-30T00:27:38;16.00;;;9.10;;
7169;SDS011;3626;42.656;23.312;2022-10-30T00:27:43;15.73;;;9.20;;
7169;SDS011;3626;42.656;23.312;2022-10-30T00:27:49;15.90;;;9.38;;
7169;SDS011;3626;42.656;23.312;2022-10-30T00:27:55;16.00;;;9.48;;
7169;SDS011;3626;42.656;23.312;2022-10-30T00:28:01;15.60;;;9.40;;
7169;SDS011;3626;42.656;23.312;2022-10-30T00:28:07;15.48;;;9.30;;
7169;SDS011;3626;42.656;23.312;2022-10-30T00:28:13;14.80;;;9.08;;
7169;SDS011;3626;42.656;23.312;2022-10-30T00:28:19;14.93;;;8.93;;
7169;SDS011;3626;42.656;23.312;2022-10-30T00:28:25;15.43;;;8.95;;
7169;SDS011;3626;42.656;23.312;2022-10-30T00:28:31;15.33;;;8.87;;
7169;SDS011;3626;42.656;23.312;2022-10-30T00:28:37;15.20;;;8.77;;
7169;SDS011;3626;42.656;23.312;2022-10-30T00:28:42;15.90;;;8.45;;
7169;SDS011;3626;42.656;23.312;2022-10-30T00:28:48;16.02;;;8.15;;
7169;SDS011;3626;42.656;23.312;2022-10-30T00:28:55;15.90;;;8.00;;
7169;SDS011;3626;42.656;23.312;2022-10-30T00:29:01;16.90;;;7.93;;
7169;SDS011;3626;42.656;23.312;2022-10-30T00:29:07;16.67;;;7.90;;
7169;SDS011;3626;42.656;23.312;2022-10-30T00:29:13;16.60;;;7.90;;
7169;SDS011;3626;42.656;23.312;2022-10-30T00:29:18;16.92;;;7.82;;
7169;SDS011;3626;42.656;23.312;2022-10-30T00:29:24;16.23;;;7.50;;
7169;SDS011;3626;42.656;23.312;2022-10-30T00:29:31;16.14;;;7.58;;
7169;SDS011;3626;42.656;23.312;2022-10-30T00:29:37;15.48;;;7.68;;
7169;SDS011;3626;42.656;23.312;2022-10-30T00:29:42;14.87;;;7.80;;
7169;SDS011;3626;42.656;23.312;2022-10-30T00:29:48;14.68;;;7.90;;
7169;SDS011;3626;42.656;23.312;2022-10-30T00:29:54;14.93;;;8.00;;
7169;SDS011;3626;42.656;23.312;2022-10-30T00:30:00;14.20;;;8.07;;
7169;SDS011;3626;42.656;23.312;2022-10-30T00:30:06;13.57;;;8.00;;
7169;SDS011;3626;42.656;23.312;2022-10-30T00:30:12;13.76;;;8.24;;
7169;SDS011;3626;42.656;23.312;2022-10-30T00:30:19;13.48;;;8.44;;
7169;SDS011;3626;42.656;23.312;2022-10-30T00:30:25;14.10;;;8.95;;
7169;SDS011;3626;42.656;23.312;2022-10-30T00:30:31;14.20;;;9.07;;
7169;SDS011;3626;42.656;23.312;2022-10-30T00:30:36;14.53;;;9.10;;
7169;SDS011;3626;42.656;23.312;2022-10-30T00:30:42;14.73;;;9.20;;
7169;SDS011;3626;42.656;23.312;2022-10-30T00:30:48;14.68;;;9.20;;
7169;SDS011;3626;42.656;23.312;2022-10-30T00:30:54;14.48;;;9.15;;
7169;SDS011;3626;42.656;23.312;2022-10-30T00:31:03;16.40;;;9.40;;
7169;SDS011;3626;42.656;23.312;2022-10-30T00:31:11;15.83;;;9.13;;
7169;SDS011;3626;42.656;23.312;2022-10-30T00:31:16;15.63;;;9.03;;
7169;SDS011;3626;42.656;23.312;2022-10-30T00:31:22;14.87;;;8.70;;
7169;SDS011;3626;42.656;23.312;2022-10-30T00:31:29;14.27;;;8.40;;
7169;SDS011;3626;42.656;23.312;2022-10-30T00:31:35;15.67;;;8.80;;
7169;SDS011;3626;42.656;23.312;2022-10-30T00:31:41;15.98;;;8.88;;
7169;SDS011;3626;42.656;23.312;2022-10-30T00:31:47;16.30;;;9.00;;
7169;SDS011;3626;42.656;23.312;2022-10-30T00:31:52;16.90;;;9.17;;
7169;SDS011;3626;42.656;23.312;2022-10-30T00:31:58;15.93;;;9.25;;
7169;SDS011;3626;42.656;23.312;2022-10-30T00:32:04;15.35;;;8.90;;
7169;SDS011;3626;42.656;23.312;2022-10-30T00:32:10;16.05;;;8.93;;
7169;SDS011;3626;42.656;23.312;2022-10-30T00:32:15;16.42;;;9.05;;
7169;SDS011;3626;42.656;23.312;2022-10-30T00:32:21;16.67;;;9.17;;
7169;SDS011;3626;42.656;23.312;2022-10-30T00:32:27;17.35;;;9.30;;
7169;SDS011;3626;42.656;23.312;2022-10-30T00:32:33;16.63;;;9.05;;
7169;SDS011;3626;42.656;23.312;2022-10-30T00:32:38;15.65;;;8.90;;
7169;SDS011;3626;42.656;23.312;2022-10-30T00:32:44;15.13;;;8.70;;
7169;SDS011;3626;42.656;23.312;2022-10-30T00:32:50;15.00;;;8.70;;
7169;SDS011;3626;42.656;23.312;2022-10-30T00:32:56;15.75;;;8.70;;
7169;SDS011;3626;42.656;23.312;2022-10-30T00:33:03;15.93;;;8.83;;
7169;SDS011;3626;42.656;23.312;2022-10-30T00:33:09;15.83;;;9.00;;
7169;SDS011;3626;42.656;23.312;2022-10-30T00:33:14;15.97;;;9.00;;
7169;SDS011;3626;42.656;23.312;2022-10-30T00:33:20;16.50;;;9.20;;
7169;SDS011;3626;42.656;23.312;2022-10-30T00:33:26;16.33;;;9.30;;
7169;SDS011;3626;42.656;23.312;2022-10-30T00:33:32;16.33;;;9.27;;
7169;SDS011;3626;42.656;23.312;2022-10-30T00:33:38;16.10;;;9.20;;
7169;SDS011;3626;42.656;23.312;2022-10-30T00:33:46;16.10;;;9.23;;
7169;SDS011;3626;42.656;23.312;2022-10-30T00:33:53;15.40;;;9.23;;
7169;SDS011;3626;42.656;23.312;2022-10-30T00:33:59;14.53;;;9.03;;
7169;SDS011;3626;42.656;23.312;2022-10-30T00:34:06;15.12;;;9.00;;
7169;SDS011;3626;42.656;23.312;2022-10-30T00:34:12;14.85;;;9.00;;
7169;SDS011;3626;42.656;23.312;2022-10-30T00:34:17;14.15;;;8.85;;
7169;SDS011;3626;42.656;23.312;2022-10-30T00:34:23;14.00;;;8.80;;
7169;SDS011;3626;42.656;23.312;2022-10-30T00:34:29;13.73;;;8.75;;
7169;SDS011;3626;42.656;23.312;2022-10-30T00:34:36;13.60;;;8.65;;
7169;SDS011;3626;42.656;23.312;2022-10-30T00:34:41;14.53;;;8.70;;
7169;SDS011;3626;42.656;23.312;2022-10-30T00:34:47;14.90;;;8.80;;
7169;SDS011;3626;42.656;23.312;2022-10-30T00:34:53;15.63;;;9.00;;
7169;SDS011;3626;42.656;23.312;2022-10-30T00:34:59;15.80;;;9.18;;
7169;SDS011;3626;42.656;23.312;2022-10-30T00:35:05;15.55;;;9.20;;
7169;SDS011;3626;42.656;23.312;2022-10-30T00:35:11;15.90;;;9.30;;
7169;SDS011;3626;42.656;23.312;2022-10-30T00:35:16;16.00;;;9.40;;
7169;SDS011;3626;42.656;23.312;2022-10-30T00:35:22;16.17;;;9.33;;
7169;SDS011;3626;42.656;23.312;2022-10-30T00:35:28;16.38;;;9.50;;
7169;SDS011;3626;42.656;23.312;2022-10-30T00:35:34;17.30;;;9.60;;
7169;SDS011;3626;42.656;23.312;2022-10-30T00:35:46;16.97;;;9.57;;
7169;SDS011;3626;42.656;23.312;2022-10-30T00:35:52;15.85;;;9.25;;
7169;SDS011;3626;42.656;23.312;2022-10-30T00:35:58;15.68;;;9.20;;
7169;SDS011;3626;42.656;23.312;2022-10-30T00:36:04;14.90;;;8.98;;
7169;SDS011;3626;42.656;23.312;2022-10-30T00:36:11;14.45;;;8.88;;
7169;SDS011;3626;42.656;23.312;2022-10-30T00:36:16;15.05;;;8.75;;
7169;SDS011;3626;42.656;23.312;2022-10-30T00:36:23;16.40;;;8.50;;
7169;SDS011;3626;42.656;23.312;2022-10-30T00:36:29;15.95;;;8.27;;
7169;SDS011;3626;42.656;23.312;2022-10-30T00:36:35;15.00;;;8.06;;
7169;SDS011;3626;42.656;23.312;2022-10-30T00:36:41;14.53;;;7.87;;
7169;SDS011;3626;42.656;23.312;2022-10-30T00:36:47;14.57;;;7.78;;